Metar z połowy godziny Komunikat METAR ze strony awiacja.imgw.pl Metar G30 EPIR METAR EPIR 240500Z 16014KT 2000 -FZRA BR BKN040 00/M01 Q1019 RMK 003 093 7/7 =